Estherville, Estherville Municipal Airport (KEST)

NameEstherville Municipal Airport
CityEstherville
CountryUnited States
ICAOKEST
IATAEST
Altitude402 m
CoordinatesGoogle Map
Live Air TrafficLiveATC.net
METARKEST 172152Z AUTO 25004KT 10SM FEW025 27/22 A2981 RMK AO2 LTG DSNT N SLP086 T02720222
2019-07-17 21:52:00 Wind: West-Southwest (250°) 2.06 m/s - Visibility: 16093.4 m - Temperature: 27 °C - Dew point: 22 °C - Humidity: 74.2% - Pressure: 1009.48 hPa
Statistics

The table below shows the detailed information of all flights to/from Estherville, Estherville Municipal Airport (KEST).